Time;durP1;ratioP1;P1;durP2;ratioP2;P2;SDS_P1;SDS_P2;PMS_P1;PMS_P2;Temp;Humidity;BMP_temperature;BMP_pressure;BME280_temperature;BME280_humidity;BME280_pressure;Samples;Min_cycle;Max_cycle;Signal;HPM_P1;HPM_P2
2021/09/15 00:01:23;;;;;;;16.88;13.07;;;;;;;19.28;78.39;98603.28;2623092;54;20039;-70
2021/09/15 00:03:53;;;;;;;13.77;12.27;;;;;;;19.30;77.94;98606.50;2621967;54;20026;-70
2021/09/15 00:06:23;;;;;;;16.27;13.18;;;;;;;19.34;77.47;98596.06;2623138;54;20027;-70
2021/09/15 00:08:54;;;;;;;16.52;13.13;;;;;;;19.41;77.73;98599.38;2623336;54;20030;-69
2021/09/15 00:11:24;;;;;;;17.25;13.48;;;;;;;19.48;77.45;98597.28;2623284;54;20023;-70
2021/09/15 00:13:56;;;;;;;17.25;12.02;;;;;;;19.45;76.91;98600.47;2622590;47;20038;-71
2021/09/15 00:16:28;;;;;;;14.82;12.38;;;;;;;19.42;77.57;98593.75;2622883;49;20573;-70
2021/09/15 00:19:01;;;;;;;17.55;12.77;;;;;;;19.45;77.31;98587.06;2622356;47;20569;-70
2021/09/15 00:21:33;;;;;;;13.85;11.50;;;;;;;19.47;77.29;98588.44;2622646;47;20027;-70
2021/09/15 00:24:02;;;;;;;12.18;10.88;;;;;;;19.53;77.25;98590.09;2622559;47;20034;-70
2021/09/15 00:26:32;;;;;;;15.52;12.18;;;;;;;19.58;77.32;98583.16;2623126;54;20022;-70
2021/09/15 00:29:04;;;;;;;13.27;11.75;;;;;;;19.61;76.80;98586.16;2622409;54;20030;-70
2021/09/15 00:31:39;;;;;;;14.88;12.52;;;;;;;19.67;76.62;98590.47;2622641;54;20035;-70
2021/09/15 00:34:11;;;;;;;12.75;11.23;;;;;;;19.59;76.49;98582.88;2623433;54;20046;-70
2021/09/15 00:36:41;;;;;;;13.88;11.07;;;;;;;19.51;76.97;98578.81;2623559;54;20035;-70
2021/09/15 00:39:10;;;;;;;16.95;12.05;;;;;;;19.43;76.77;98576.63;2622833;54;20023;-70
2021/09/15 00:41:43;;;;;;;13.23;11.65;;;;;;;19.40;77.18;98577.13;2623696;54;20533;-70
2021/09/15 00:44:14;;;;;;;13.95;11.32;;;;;;;19.37;77.42;98576.81;2622708;46;20022;-71
2021/09/15 00:46:47;;;;;;;15.75;12.52;;;;;;;19.32;77.42;98572.22;2622901;47;20086;-71
2021/09/15 00:49:17;;;;;;;13.00;11.30;;;;;;;19.34;77.84;98571.97;2623765;54;20117;-70
2021/09/15 00:51:52;;;;;;;12.10;10.88;;;;;;;19.42;77.30;98568.81;2622382;54;20057;-70
2021/09/15 00:54:23;;;;;;;14.35;12.73;;;;;;;19.49;77.18;98566.72;2622455;47;20042;-70
2021/09/15 00:56:53;;;;;;;11.63;10.40;;;;;;;19.46;77.32;98565.34;2622146;54;20022;-70
2021/09/15 00:59:23;;;;;;;14.70;10.77;;;;;;;19.51;77.24;98557.38;2622002;54;20098;-70
2021/09/15 01:01:58;;;;;;;15.85;12.60;;;;;;;19.50;76.60;98555.75;2622643;54;20022;-71
2021/09/15 02:42:40;;;;;;;8.37;5.33;;;;;;;20.36;72.37;98511.72;2623877;54;20246;-70
2021/09/15 02:45:15;;;;;;;7.10;5.53;;;;;;;20.36;72.40;98510.91;2624278;51;20351;-70
2021/09/15 02:47:55;;;;;;;7.93;5.90;;;;;;;20.37;72.66;98521.41;2624123;54;20014;-71
2021/09/15 02:50:48;;;;;;;10.23;5.63;;;;;;;20.39;72.28;98518.44;2623121;54;20082;-70
2021/09/15 02:53:38;;;;;;;9.32;6.25;;;;;;;20.40;72.28;98515.50;2625630;31;20553;-70
2021/09/15 02:56:32;;;;;;;;;;;;;;;20.39;72.40;98516.56;2622646;46;20039;-71
2021/09/15 02:59:40;;;;;;;7.22;5.55;;;;;;;20.39;72.21;98511.19;2621557;54;19967;-70
2021/09/15 03:02:24;;;;;;;8.43;6.50;;;;;;;20.38;72.52;98517.66;2622624;50;20600;-70
2021/09/15 03:05:22;;;;;;;6.95;5.45;;;;;;;20.39;72.33;98521.13;2623372;54;20130;-70
2021/09/15 03:08:24;;;;;;;7.70;5.35;;;;;;;20.37;72.54;98513.34;2622771;47;20118;-70
2021/09/15 03:10:54;;;;;;;7.03;6.30;;;;;;;20.35;72.70;98514.69;2620612;54;20027;-69
2021/09/15 03:13:33;;;;;;;8.18;5.30;;;;;;;20.36;72.86;98516.28;2621792;39;20506;-70
2021/09/15 03:16:08;;;;;;;6.55;5.03;;;;;;;20.35;72.34;98504.75;2621763;54;20078;-70
2021/09/15 03:18:38;;;;;;;6.95;5.20;;;;;;;20.34;72.69;98513.88;2622077;46;20040;-69
2021/09/15 03:21:09;;;;;;;6.25;5.20;;;;;;;20.33;72.84;98522.16;2621834;51;20069;-70
2021/09/15 03:23:39;;;;;;;7.95;5.45;;;;;;;20.35;72.49;98514.69;2622826;54;20034;-70
2021/09/15 03:26:09;;;;;;;6.90;6.03;;;;;;;20.35;73.05;98512.00;2622645;54;20035;-70
2021/09/15 03:28:39;;;;;;;8.10;5.72;;;;;;;20.36;72.76;98516.28;2622619;54;20078;-69
2021/09/15 03:31:11;;;;;;;13.25;6.13;;;;;;;20.37;73.09;98507.16;2622522;54;20042;-70
2021/09/15 03:33:41;;;;;;;7.55;5.40;;;;;;;20.37;72.73;98513.34;2622616;54;20035;-70
2021/09/15 03:36:14;;;;;;;8.13;5.70;;;;;;;20.38;72.57;98508.78;2622416;54;20026;-69
2021/09/15 03:38:44;;;;;;;8.20;6.40;;;;;;;20.40;72.91;98498.59;2622556;54;20584;-69
2021/09/15 03:41:14;;;;;;;6.90;5.63;;;;;;;20.41;72.68;98497.50;2622025;47;20041;-70
2021/09/15 03:43:44;;;;;;;8.98;5.28;;;;;;;20.45;72.68;98499.44;2622581;54;20022;-70
2021/09/15 03:46:17;;;;;;;10.73;6.05;;;;;;;20.46;72.85;98498.34;2624368;39;20470;-71
2021/09/15 03:48:47;;;;;;;7.97;5.82;;;;;;;20.43;72.69;98493.50;2621707;54;20042;-70
2021/09/15 03:51:17;;;;;;;6.68;5.60;;;;;;;20.41;72.62;98495.66;2621360;47;20031;-70
2021/09/15 03:53:47;;;;;;;7.30;5.40;;;;;;;20.41;72.78;98495.66;2622454;47;20026;-70
2021/09/15 03:56:17;;;;;;;7.80;6.03;;;;;;;20.41;72.74;98501.03;2622281;47;20049;-71
2021/09/15 03:58:46;;;;;;;6.32;5.68;;;;;;;20.41;72.92;98495.66;2622212;54;20538;-71
2021/09/15 04:01:24;;;;;;;6.53;5.20;;;;;;;20.45;72.66;98501.28;2621692;51;20035;-71
2021/09/15 04:03:54;;;;;;;6.93;5.75;;;;;;;20.47;72.82;98499.16;2622432;47;20030;-71
2021/09/15 04:06:27;;;;;;;8.85;6.32;;;;;;;20.47;72.58;98499.16;2621605;54;20065;-71
2021/09/15 04:08:57;;;;;;;8.05;6.28;;;;;;;20.46;72.72;98509.09;2623291;31;20483;-71
2021/09/15 04:11:27;;;;;;;12.38;5.65;;;;;;;20.45;72.71;98503.97;2622464;54;20030;-71
2021/09/15 04:13:57;;;;;;;8.10;5.82;;;;;;;20.36;73.02;98508.22;2622554;47;20022;-71
2021/09/15 04:16:30;;;;;;;9.70;7.07;;;;;;;20.32;73.70;98517.88;2622427;54;20038;-70
2021/09/15 04:19:00;;;;;;;7.10;6.40;;;;;;;20.28;73.58;98521.09;2622666;47;20041;-69
2021/09/15 04:21:30;;;;;;;8.95;5.93;;;;;;;20.28;73.92;98525.66;2623137;47;20053;-71
2021/09/15 04:24:28;;;;;;;8.73;6.35;;;;;;;20.28;73.45;98520.28;2622025;47;20125;-69
2021/09/15 04:32:43;;;;;;;8.68;6.50;;;;;;;20.25;74.26;98528.88;2621484;54;20031;-71
2021/09/15 04:35:13;;;;;;;8.98;6.78;;;;;;;20.24;74.28;98528.03;2622200;54;20125;-70
2021/09/15 04:37:43;;;;;;;8.57;6.32;;;;;;;20.21;74.66;98531.28;2622037;47;20057;-71
2021/09/15 04:40:14;;;;;;;7.60;5.80;;;;;;;20.21;74.49;98533.97;2622074;47;20034;-71
2021/09/15 04:42:44;;;;;;;7.03;6.32;;;;;;;20.19;74.88;98536.09;2622671;54;20541;-71
2021/09/15 04:45:16;;;;;;;7.10;6.40;;;;;;;20.19;74.85;98537.97;2622049;54;20126;-71
2021/09/15 04:47:48;;;;;;;7.85;6.45;;;;;;;20.16;75.14;98533.91;2621893;47;20030;-71
2021/09/15 04:50:18;;;;;;;9.05;5.95;;;;;;;20.11;75.02;98543.81;2621845;47;20133;-71
2021/09/15 04:52:49;;;;;;;8.27;6.35;;;;;;;20.07;75.71;98540.03;2622147;47;20022;-72
2021/09/15 04:55:19;;;;;;;8.48;5.78;;;;;;;20.05;75.86;98551.06;2622905;39;20421;-71
2021/09/15 04:57:48;;;;;;;9.93;6.80;;;;;;;20.01;75.66;98548.06;2622606;54;20031;-71
2021/09/15 05:00:18;;;;;;;10.23;6.68;;;;;;;20.01;76.22;98552.63;2622229;51;20050;-71
2021/09/15 05:03:01;;;;;;;7.97;6.63;;;;;;;20.01;76.19;98555.31;2622179;47;20050;-71
2021/09/15 05:05:37;;;;;;;7.47;6.75;;;;;;;19.99;76.37;98558.25;2622083;54;20078;-71
2021/09/15 05:08:07;;;;;;;9.38;6.22;;;;;;;20.00;76.62;98559.06;2622210;47;20029;-71
2021/09/15 05:10:38;;;;;;;7.93;6.57;;;;;;;19.99;76.58;98558.25;2621883;54;20030;-70
2021/09/15 05:13:08;;;;;;;8.23;6.90;;;;;;;20.00;77.04;98564.41;2621720;54;20562;-71
2021/09/15 05:15:41;;;;;;;7.82;7.03;;;;;;;20.01;77.12;98564.19;2620518;47;20047;-70
2021/09/15 05:18:15;;;;;;;9.70;6.70;;;;;;;20.02;76.64;98562.28;2620592;53;20038;-70
2021/09/15 05:20:45;;;;;;;10.82;7.72;;;;;;;20.01;77.22;98569.53;2621316;54;20087;-70
2021/09/15 05:23:16;;;;;;;10.93;7.50;;;;;;;20.01;77.22;98564.19;2622119;51;20022;-70
2021/09/15 05:25:48;;;;;;;10.00;7.90;;;;;;;20.07;77.34;98564.19;2622512;54;20114;-69
2021/09/15 05:28:18;;;;;;;9.93;7.15;;;;;;;20.07;77.30;98562.31;2619969;54;20037;-63
2021/09/15 05:30:48;;;;;;;8.98;7.60;;;;;;;20.07;77.41;98565.00;2617925;47;20026;-65
2021/09/15 05:33:20;;;;;;;10.07;8.95;;;;;;;20.04;77.08;98563.66;2618690;47;20030;-65
2021/09/15 05:35:50;;;;;;;8.98;7.57;;;;;;;20.00;77.42;98557.19;2618617;47;20034;-65
2021/09/15 05:38:20;;;;;;;12.95;7.55;;;;;;;20.02;77.43;98551.56;2618649;54;20027;-65
2021/09/15 05:41:25;;;;;;;9.20;7.65;;;;;;;20.02;77.25;98541.63;2618572;54;20133;-65
2021/09/15 05:43:56;;;;;;;24.35;18.58;;;;;;;20.02;77.40;98538.94;2618308;47;20034;-65
2021/09/15 05:46:27;;;;;;;14.30;11.68;;;;;;;20.00;78.04;98538.41;2618507;54;21521;-64
2021/09/15 05:49:03;;;;;;;10.20;8.10;;;;;;;20.01;77.65;98539.22;2618840;47;20152;-65
2021/09/15 05:51:34;;;;;;;12.50;10.52;;;;;;;20.07;78.04;98548.09;2618648;54;20030;-65
2021/09/15 05:54:08;;;;;;;14.18;11.15;;;;;;;20.10;77.81;98553.75;2619063;47;20041;-65
2021/09/15 05:56:38;;;;;;;13.60;11.30;;;;;;;20.12;77.96;98550.81;2618867;46;20035;-65
2021/09/15 05:59:08;;;;;;;8.77;7.68;;;;;;;20.13;77.81;98561.28;2619363;54;20034;-65
2021/09/15 06:01:38;;;;;;;14.05;9.23;;;;;;;20.16;78.04;98552.69;2619668;39;20488;-65
2021/09/15 06:04:10;;;;;;;16.30;10.82;;;;;;;20.14;77.72;98557.53;2619401;54;20554;-65
2021/09/15 06:07:15;;;;;;;20.48;12.93;;;;;;;20.14;77.91;98552.16;2619827;54;20129;-66
2021/09/15 06:09:45;;;;;;;13.98;11.23;;;;;;;20.08;77.95;98549.69;2619332;54;20541;-65
2021/09/15 06:12:15;;;;;;;12.98;9.57;;;;;;;20.01;78.19;98556.13;2619982;54;20036;-65
2021/09/15 06:14:45;;;;;;;11.15;9.95;;;;;;;19.91;79.20;98557.94;2619117;47;20030;-65
2021/09/15 06:17:15;;;;;;;13.25;8.23;;;;;;;19.93;79.54;98559.31;2618556;47;20038;-65
2021/09/15 06:19:51;;;;;;;11.13;9.25;;;;;;;20.03;79.62;98550.50;2618295;47;20549;-64
2021/09/15 06:22:37;;;;;;;10.32;8.13;;;;;;;20.04;79.20;98544.88;2618237;54;20034;-64
2021/09/15 06:25:23;;;;;;;12.48;9.32;;;;;;;20.10;79.49;98548.38;2619177;54;20065;-64
2021/09/15 06:27:55;;;;;;;;;;;;;;;20.14;79.13;98549.47;2621009;46;20078;-64
2021/09/15 06:30:26;;;;;;;13.48;9.50;;;;;;;20.21;79.03;98550.06;2618538;39;20349;-65
2021/09/15 06:32:55;;;;;;;16.45;12.23;;;;;;;20.26;78.92;98550.06;2618281;54;20557;-66
2021/09/15 06:35:28;;;;;;;16.25;10.95;;;;;;;20.26;78.91;98550.06;2618405;54;20033;-66
2021/09/15 06:37:57;;;;;;;15.57;13.20;;;;;;;20.29;78.74;98546.06;2618394;54;20030;-65
2021/09/15 06:40:27;;;;;;;16.75;9.82;;;;;;;20.31;78.91;98551.16;2618325;39;20560;-65
2021/09/15 06:42:57;;;;;;;19.02;11.27;;;;;;;20.28;78.96;98545.25;2619047;39;20446;-65
2021/09/15 06:45:27;;;;;;;16.15;11.85;;;;;;;20.32;79.23;98545.53;2618726;54;20057;-65
2021/09/15 06:47:56;;;;;;;12.23;9.43;;;;;;;20.37;79.82;98548.25;2618472;54;20044;-65
2021/09/15 06:50:29;;;;;;;9.02;7.35;;;;;;;20.46;79.05;98545.88;2618071;54;20042;-65
2021/09/15 06:52:58;;;;;;;10.70;8.15;;;;;;;20.53;79.32;98546.44;2618164;47;20038;-66
2021/09/15 06:55:28;;;;;;;10.35;9.35;;;;;;;20.59;78.98;98544.59;2619137;54;20046;-65
2021/09/15 06:57:59;;;;;;;9.75;7.60;;;;;;;20.60;78.62;98543.53;2618221;54;20022;-66
2021/09/15 07:00:29;;;;;;;7.50;6.80;;;;;;;20.62;78.22;98549.44;2618616;54;20038;-65
2021/09/15 07:02:58;;;;;;;7.20;5.90;;;;;;;20.62;77.75;98558.31;2618235;47;20042;-66
2021/09/15 07:05:31;;;;;;;7.28;6.05;;;;;;;20.64;77.99;98548.09;2618630;54;20038;-65
2021/09/15 07:08:01;;;;;;;12.13;6.20;;;;;;;20.65;77.49;98554.28;2618937;54;20018;-66
2021/09/15 07:10:33;;;;;;;8.60;5.82;;;;;;;20.61;77.99;98553.97;2618246;54;20150;-66
2021/09/15 07:13:02;;;;;;;7.75;5.53;;;;;;;20.54;77.88;98558.81;2618545;54;20033;-66
2021/09/15 07:15:32;;;;;;;8.32;6.05;;;;;;;20.51;77.87;98564.72;2618482;47;20049;-65
2021/09/15 07:18:02;;;;;;;8.43;5.40;;;;;;;20.37;78.23;98563.53;2618077;47;20034;-65
2021/09/15 07:20:35;;;;;;;7.88;5.22;;;;;;;20.31;78.57;98560.03;2618870;54;20026;-64
2021/09/15 07:23:05;;;;;;;6.10;5.22;;;;;;;20.32;78.04;98558.16;2618525;54;20628;-66
2021/09/15 07:25:35;;;;;;;6.78;5.03;;;;;;;20.31;78.55;98564.59;2618853;54;20549;-65
2021/09/15 07:28:04;;;;;;;6.32;5.60;;;;;;;20.35;78.07;98558.44;2618691;54;20181;-65
2021/09/15 07:30:34;;;;;;;6.35;4.97;;;;;;;20.30;77.76;98561.09;2617697;47;20545;-66
2021/09/15 07:33:03;;;;;;;8.32;5.80;;;;;;;20.36;77.67;98551.19;2618589;54;20057;-65
2021/09/15 07:35:36;;;;;;;7.60;4.93;;;;;;;20.45;77.58;98558.50;2618684;54;20027;-65
2021/09/15 07:38:05;;;;;;;6.47;4.55;;;;;;;20.47;77.25;98564.38;2617527;54;20581;-65
2021/09/15 07:40:35;;;;;;;6.47;4.35;;;;;;;20.42;77.43;98569.75;2618397;54;20052;-66
2021/09/15 07:43:05;;;;;;;6.85;4.47;;;;;;;20.40;77.12;98563.81;2619166;39;20473;-66
2021/09/15 07:45:34;;;;;;;8.32;4.50;;;;;;;20.45;77.12;98566.53;2618502;54;20030;-65
2021/09/15 07:48:04;;;;;;;7.55;4.95;;;;;;;20.47;77.10;98568.97;2618899;39;20399;-66
2021/09/15 07:50:36;;;;;;;6.80;4.65;;;;;;;20.48;77.31;98570.56;2619483;54;20030;-66
2021/09/15 07:53:06;;;;;;;8.27;5.32;;;;;;;20.53;77.37;98576.81;2623654;54;20030;-66
2021/09/15 07:55:37;;;;;;;6.32;5.03;;;;;;;20.51;76.91;98568.19;2619986;54;20030;-66
2021/09/15 07:58:07;;;;;;;7.78;4.88;;;;;;;20.44;77.07;98572.97;2618749;54;20031;-66
2021/09/15 08:00:37;;;;;;;8.82;4.97;;;;;;;20.45;77.25;98571.06;2618466;54;20031;-66
2021/09/15 08:03:06;;;;;;;5.00;4.13;;;;;;;20.40;77.61;98563.81;2618616;54;20029;-65
2021/09/15 08:05:39;;;;;;;5.53;3.85;;;;;;;20.32;77.29;98576.94;2618974;39;20453;-65
2021/09/15 08:08:11;;;;;;;4.97;4.13;;;;;;;20.19;78.01;98570.97;2618550;54;20029;-66
2021/09/15 08:10:41;;;;;;;8.98;4.57;;;;;;;20.19;77.83;98570.16;2618531;39;20457;-66
2021/09/15 08:13:11;;;;;;;5.95;4.50;;;;;;;20.18;77.96;98579.28;2618615;54;20109;-66
2021/09/15 08:15:41;;;;;;;5.07;4.40;;;;;;;20.20;78.16;98579.81;2618613;54;20030;-65
2021/09/15 08:18:10;;;;;;;8.15;4.75;;;;;;;20.21;78.66;98573.41;2617784;54;20041;-66
2021/09/15 08:21:02;;;;;;;8.52;4.43;;;;;;;20.24;78.74;98578.22;2617863;54;20030;-65
2021/09/15 08:23:32;;;;;;;5.18;4.38;;;;;;;20.24;78.19;98579.03;2618980;39;20421;-65
2021/09/15 08:26:02;;;;;;;7.97;5.32;;;;;;;20.26;78.83;98576.13;2618518;54;20057;-66
2021/09/15 08:28:36;;;;;;;8.60;5.70;;;;;;;20.28;79.15;98582.00;2617947;54;20019;-66
2021/09/15 08:31:05;;;;;;;8.90;6.13;;;;;;;20.29;78.68;98586.34;2617484;47;20054;-65
2021/09/15 08:33:35;;;;;;;6.20;5.40;;;;;;;20.33;78.82;98573.19;2618459;54;20034;-65
2021/09/15 08:36:08;;;;;;;4.80;4.10;;;;;;;20.33;79.03;98578.53;2618453;54;20031;-65
2021/09/15 08:38:37;;;;;;;5.15;4.18;;;;;;;20.33;79.13;98581.22;2618468;54;20038;-64
2021/09/15 08:41:07;;;;;;;5.97;5.13;;;;;;;20.34;78.51;98578.31;2618190;54;20038;-64
2021/09/15 08:43:37;;;;;;;5.70;4.68;;;;;;;20.31;78.87;98573.44;2618901;54;20037;-65
2021/09/15 08:46:07;;;;;;;6.47;4.65;;;;;;;20.29;78.80;98581.78;2618404;54;20030;-65
2021/09/15 08:48:39;;;;;;;5.13;4.57;;;;;;;20.21;79.19;98579.59;2617680;48;20569;-65
2021/09/15 08:51:16;;;;;;;6.43;4.60;;;;;;;20.17;78.71;98583.84;2616776;47;20034;-65
2021/09/15 08:53:47;;;;;;;4.72;4.05;;;;;;;20.18;78.85;98584.66;2618257;54;20117;-65
2021/09/15 08:56:17;;;;;;;5.38;4.35;;;;;;;20.27;79.03;98585.78;2618162;54;20564;-66
2021/09/15 08:58:47;;;;;;;4.85;4.15;;;;;;;20.31;79.48;98580.69;2618730;54;20134;-65
2021/09/15 09:01:19;;;;;;;6.82;4.60;;;;;;;20.38;78.97;98576.72;2619192;39;20425;-65
2021/09/15 09:03:54;;;;;;;8.38;4.50;;;;;;;20.46;79.34;98580.78;2619144;54;20034;-65
2021/09/15 09:06:28;;;;;;;4.60;4.20;;;;;;;20.53;78.92;98576.81;2619451;39;20670;-65
2021/09/15 09:09:00;;;;;;;4.93;4.03;;;;;;;20.53;78.96;98574.13;2618795;54;20064;-66
2021/09/15 09:11:31;;;;;;;6.55;3.97;;;;;;;20.55;78.95;98576.53;2618047;54;20129;-66
2021/09/15 09:14:03;;;;;;;5.85;4.40;;;;;;;20.59;78.82;98579.50;2618685;39;20105;-66
2021/09/15 09:16:42;;;;;;;7.50;4.10;;;;;;;20.62;78.45;98581.69;2619260;39;20394;-65
2021/09/15 09:19:16;;;;;;;6.90;5.03;;;;;;;20.65;78.56;98581.13;2618179;47;20055;-66
2021/09/15 09:21:52;;;;;;;6.15;4.03;;;;;;;20.65;78.35;98592.66;2618947;54;20038;-66
2021/09/15 09:24:24;;;;;;;6.35;3.97;;;;;;;20.65;78.53;98581.94;2618333;50;20081;-64
2021/09/15 09:26:56;;;;;;;5.88;4.25;;;;;;;20.74;78.03;98593.00;2619245;54;20074;-65
2021/09/15 09:29:34;;;;;;;6.22;4.20;;;;;;;20.89;77.60;98579.59;2619150;39;20125;-65
2021/09/15 09:32:08;;;;;;;6.15;3.85;;;;;;;21.06;77.75;98592.78;2618285;47;20027;-65
2021/09/15 09:34:43;;;;;;;4.38;3.30;;;;;;;21.21;77.17;98581.25;2619305;54;20042;-64
2021/09/15 09:37:19;;;;;;;6.10;3.90;;;;;;;21.36;76.91;98585.88;2619211;54;20038;-64
2021/09/15 09:39:55;;;;;;;5.28;3.70;;;;;;;21.38;76.39;98579.16;2618277;54;20154;-64
2021/09/15 09:42:38;;;;;;;4.00;3.55;;;;;;;21.35;75.85;98585.09;2619074;54;20038;-63
2021/09/15 09:45:21;;;;;;;4.38;3.95;;;;;;;21.47;75.67;98577.56;2618723;47;20033;-64
2021/09/15 09:47:51;;;;;;;4.07;3.78;;;;;;;21.54;76.34;98579.97;2619533;47;20030;-64
2021/09/15 09:50:27;;;;;;;4.47;3.45;;;;;;;21.57;75.36;98578.63;2618884;54;20038;-64
2021/09/15 09:53:04;;;;;;;4.32;3.50;;;;;;;21.58;75.49;98572.97;2618504;54;20049;-64
2021/09/15 09:55:40;;;;;;;3.80;3.30;;;;;;;21.59;75.50;98579.16;2619074;54;20023;-64
2021/09/15 09:58:10;;;;;;;5.13;3.55;;;;;;;21.63;75.43;98575.66;2619958;54;20034;-65
2021/09/15 10:00:41;;;;;;;4.22;3.30;;;;;;;21.80;75.31;98574.56;2620048;39;20443;-65
2021/09/15 10:03:12;;;;;;;3.63;3.25;;;;;;;21.94;74.61;98578.31;2618815;54;20042;-67
2021/09/15 10:05:42;;;;;;;4.30;3.70;;;;;;;21.91;74.54;98581.53;2619836;54;20034;-65
2021/09/15 10:08:14;;;;;;;4.65;3.40;;;;;;;21.73;74.46;98578.34;2619103;54;20542;-65
2021/09/15 10:10:45;;;;;;;5.25;3.90;;;;;;;21.67;74.76;98579.41;2618016;47;20085;-65
2021/09/15 10:13:15;;;;;;;4.10;3.60;;;;;;;21.71;74.70;98580.47;2618376;54;20038;-65
2021/09/15 10:15:49;;;;;;;5.28;3.08;;;;;;;21.71;74.85;98577.78;2618633;54;20566;-65
2021/09/15 10:18:21;;;;;;;3.40;3.10;;;;;;;21.74;75.24;98571.88;2619414;39;20445;-66
2021/09/15 10:20:55;;;;;;;3.30;3.00;;;;;;;21.70;75.13;98570.81;2618666;54;20027;-66
2021/09/15 10:23:50;;;;;;;3.65;3.22;;;;;;;21.65;74.76;98575.41;2620135;39;20438;-65
2021/09/15 10:26:38;;;;;;;4.28;3.30;;;;;;;21.56;74.88;98571.66;2618414;54;20038;-65
2021/09/15 10:29:31;;;;;;;6.72;2.95;;;;;;;21.51;74.91;98567.03;2618935;54;20033;-65
2021/09/15 10:32:12;;;;;;;4.97;3.25;;;;;;;21.50;75.49;98568.13;2618818;54;20126;-65
2021/09/15 10:34:54;;;;;;;5.75;3.70;;;;;;;21.51;75.16;98562.50;2619801;54;20034;-65
2021/09/15 10:37:53;;;;;;;4.40;2.85;;;;;;;21.57;75.06;98559.81;2621354;54;20035;-65
2021/09/15 10:40:34;;;;;;;3.65;2.85;;;;;;;21.61;74.68;98560.88;2620548;47;20034;-66
2021/09/15 10:43:04;;;;;;;3.47;3.08;;;;;;;21.56;74.55;98561.69;2620758;54;20533;-65
2021/09/15 10:45:34;;;;;;;5.13;3.00;;;;;;;21.64;74.88;98560.34;2621290;54;20030;-65
2021/09/15 10:48:15;;;;;;;3.25;2.95;;;;;;;21.71;74.37;98553.59;2621416;54;20037;-66
2021/09/15 10:50:55;;;;;;;3.95;2.83;;;;;;;21.79;74.20;98556.81;2620936;54;20027;-66
2021/09/15 10:53:33;;;;;;;4.60;2.72;;;;;;;21.71;74.32;98552.78;2621427;54;20042;-66
2021/09/15 10:56:05;;;;;;;5.15;2.80;;;;;;;21.64;74.25;98563.03;2620808;47;20545;-66
2021/09/15 10:58:45;;;;;;;2.88;2.65;;;;;;;21.64;74.47;98566.53;2620606;47;20026;-65
2021/09/15 11:01:15;;;;;;;5.88;2.75;;;;;;;21.60;74.66;98562.75;2619660;47;20023;-66
2021/09/15 11:03:54;;;;;;;2.83;2.22;;;;;;;21.63;74.31;98553.31;2619300;47;20049;-66
2021/09/15 11:06:25;;;;;;;4.25;2.80;;;;;;;21.61;74.38;98561.69;2619856;54;20550;-66
2021/09/15 11:08:55;;;;;;;3.13;2.33;;;;;;;21.52;74.49;98561.41;2619752;54;20034;-66
2021/09/15 11:11:54;;;;;;;2.92;2.55;;;;;;;21.48;74.71;98559.53;2619336;54;20042;-66
2021/09/15 11:14:24;;;;;;;2.75;2.22;;;;;;;21.48;74.74;98560.34;2619749;39;20426;-66
2021/09/15 11:16:54;;;;;;;5.13;2.70;;;;;;;21.54;74.66;98561.13;2620699;39;20430;-66
2021/09/15 11:19:32;;;;;;;2.78;2.15;;;;;;;21.57;74.42;98557.91;2619172;54;20057;-66
2021/09/15 11:22:02;;;;;;;4.80;2.70;;;;;;;21.45;73.88;98554.69;2618976;54;20534;-66
2021/09/15 11:24:33;;;;;;;4.05;2.63;;;;;;;21.51;74.66;98559.81;2618986;54;20029;-64
2021/09/15 11:27:08;;;;;;;2.50;2.20;;;;;;;21.58;73.81;98556.84;2619135;54;20039;-64
2021/09/15 11:29:44;;;;;;;3.20;2.72;;;;;;;21.58;74.04;98553.34;2620456;54;20030;-65
2021/09/15 11:32:15;;;;;;;2.92;2.40;;;;;;;21.51;74.13;98554.44;2619958;47;20022;-65
2021/09/15 17:30:18;;;;;;;9.40;4.77;;;;;;;20.54;73.01;98526.59;2621625;47;20045;-69
2021/09/15 17:32:48;;;;;;;6.63;2.67;;;;;;;20.49;73.58;98526.56;2621706;54;20283;-70
2021/09/15 17:35:18;;;;;;;5.20;2.75;;;;;;;20.48;73.41;98519.56;2621524;54;20018;-70
2021/09/15 17:37:48;;;;;;;7.15;3.95;;;;;;;20.48;73.93;98519.56;2621769;54;20038;-70
2021/09/15 17:40:18;;;;;;;7.85;3.67;;;;;;;20.43;73.74;98522.22;2622433;39;20429;-70
2021/09/15 17:42:47;;;;;;;7.45;3.90;;;;;;;20.44;74.08;98516.59;2621544;54;20038;-71
2021/09/15 17:45:20;;;;;;;8.65;3.85;;;;;;;20.45;73.51;98518.22;2621791;54;20150;-72
2021/09/15 17:47:49;;;;;;;6.70;4.28;;;;;;;20.42;73.94;98526.00;2622030;54;20022;-70
2021/09/15 17:50:19;;;;;;;5.70;4.95;;;;;;;20.37;73.19;98518.72;2621926;54;20029;-71
2021/09/15 17:52:49;;;;;;;8.35;4.45;;;;;;;20.32;73.81;98520.56;2621672;54;20041;-70
2021/09/15 17:55:20;;;;;;;5.82;3.03;;;;;;;20.30;74.08;98526.22;2621915;47;20037;-69
2021/09/15 17:57:50;;;;;;;4.47;2.95;;;;;;;20.27;73.78;98534.78;2621078;47;20030;-71
2021/09/15 18:00:22;;;;;;;5.30;3.40;;;;;;;20.20;74.32;98539.56;2621387;47;20027;-70
2021/09/15 18:02:52;;;;;;;4.53;2.95;;;;;;;20.14;74.26;98546.78;2620954;54;20112;-70
2021/09/15 18:05:22;;;;;;;5.45;3.47;;;;;;;20.09;74.82;98549.47;2621511;39;20442;-70
2021/09/15 18:07:53;;;;;;;5.97;3.50;;;;;;;20.06;74.81;98549.97;2622065;54;20034;-70
2021/09/15 18:10:23;;;;;;;4.53;2.97;;;;;;;20.06;74.97;98565.28;2620882;51;20053;-71
2021/09/15 18:12:53;;;;;;;7.53;3.80;;;;;;;20.06;75.06;98558.03;2621337;54;20053;-70
2021/09/15 18:15:26;;;;;;;5.60;2.90;;;;;;;20.01;75.45;98560.69;2622146;54;20053;-71
2021/09/15 18:17:56;;;;;;;2.85;2.30;;;;;;;20.01;75.38;98561.50;2621960;54;20045;-70
2021/09/15 18:20:25;;;;;;;3.65;2.60;;;;;;;20.06;74.70;98560.72;2621156;47;20034;-71
2021/09/15 18:22:55;;;;;;;3.78;2.63;;;;;;;20.08;74.50;98565.81;2618968;54;20077;-71
2021/09/15 18:25:25;;;;;;;5.13;2.65;;;;;;;20.07;74.82;98569.56;2619880;54;20045;-70
2021/09/15 18:27:55;;;;;;;3.85;2.45;;;;;;;20.07;74.60;98573.06;2620141;54;20030;-70
2021/09/15 18:30:27;;;;;;;6.35;3.13;;;;;;;20.03;74.71;98569.28;2620004;54;20054;-71
2021/09/15 18:32:57;;;;;;;3.28;2.75;;;;;;;19.98;74.91;98563.88;2620420;54;20117;-72
2021/09/15 18:35:26;;;;;;;4.63;2.83;;;;;;;19.95;75.03;98567.88;2620725;46;20034;-72
2021/09/15 18:37:57;;;;;;;4.25;2.75;;;;;;;19.96;75.09;98569.53;2621445;54;20030;-70
2021/09/15 18:40:27;;;;;;;6.13;3.20;;;;;;;19.94;74.65;98565.47;2621798;54;20557;-71
2021/09/15 18:42:57;;;;;;;4.47;3.08;;;;;;;19.91;75.03;98572.16;2621682;54;20027;-72
2021/09/15 18:45:29;;;;;;;3.53;3.20;;;;;;;19.91;75.06;98587.44;2620844;47;20180;-72
2021/09/15 18:47:59;;;;;;;4.05;2.97;;;;;;;19.88;74.95;98583.41;2621475;54;20534;-71
2021/09/15 18:50:29;;;;;;;4.63;3.28;;;;;;;19.84;75.27;98590.38;2622448;54;20038;-72
2021/09/15 18:53:03;;;;;;;4.90;2.90;;;;;;;19.81;75.25;98588.19;2622219;54;20038;-70
2021/09/15 18:55:33;;;;;;;7.95;3.38;;;;;;;19.79;75.91;98588.44;2622430;54;20035;-71
2021/09/15 18:58:03;;;;;;;3.85;3.20;;;;;;;19.81;75.72;98590.88;2622176;54;20046;-71
2021/09/15 19:00:35;;;;;;;4.00;2.63;;;;;;;19.77;75.49;98587.09;2622389;54;20042;-71
2021/09/15 19:03:06;;;;;;;;;;;;;;;19.71;75.74;98591.59;2623820;39;20448;-71
2021/09/15 19:05:37;;;;;;;3.85;3.40;;;;;;;19.67;75.97;98579.75;2622090;54;19938;-72
2021/09/15 19:08:07;;;;;;;5.35;3.45;;;;;;;19.67;76.11;98582.44;2622925;54;20089;-70
2021/09/15 19:10:39;;;;;;;6.07;3.78;;;;;;;19.69;76.07;98585.69;2623084;54;20577;-72
2021/09/15 19:13:10;;;;;;;5.13;3.50;;;;;;;19.69;76.00;98584.88;2622756;54;20045;-71
2021/09/15 19:15:42;;;;;;;4.97;3.83;;;;;;;19.66;76.39;98585.38;2622808;54;20042;-72
2021/09/15 19:18:12;;;;;;;5.60;3.67;;;;;;;19.62;76.26;98590.44;2624593;39;20436;-72
2021/09/15 19:20:45;;;;;;;4.65;3.10;;;;;;;19.62;76.34;98593.13;2624235;54;20575;-71
2021/09/15 19:23:15;;;;;;;4.38;3.47;;;;;;;19.62;76.42;98589.66;2625126;47;20026;-71
2021/09/15 19:25:46;;;;;;;8.40;3.88;;;;;;;19.62;76.23;98598.50;2624036;54;20049;-71
2021/09/15 19:28:17;;;;;;;6.07;3.47;;;;;;;19.60;76.36;98595.25;2624632;54;20026;-71
2021/09/15 19:30:50;;;;;;;5.60;3.47;;;;;;;19.61;76.18;98598.72;2623351;47;20037;-71
2021/09/15 19:33:20;;;;;;;4.75;3.70;;;;;;;19.57;76.35;98603.78;2623490;47;20030;-71
2021/09/15 19:35:49;;;;;;;5.75;3.38;;;;;;;19.55;76.37;98611.28;2622737;54;20048;-71
2021/09/15 19:38:19;;;;;;;5.25;3.50;;;;;;;19.53;76.66;98619.59;2622884;54;20061;-72